sensor_id;sensor_type;location;lat;lon;timestamp;P1;durP1;ratioP1;P2;durP2;ratioP2
47772;SDS011;33534;51.028;13.716;2024-02-26T00:02:22;137.57;;;90.82;;
47772;SDS011;33534;51.028;13.716;2024-02-26T00:04:48;137.45;;;91.53;;
47772;SDS011;33534;51.028;13.716;2024-02-26T00:07:15;141.80;;;93.28;;
47772;SDS011;33534;51.028;13.716;2024-02-26T00:09:40;141.38;;;91.63;;
47772;SDS011;33534;51.028;13.716;2024-02-26T00:12:06;129.90;;;87.82;;
47772;SDS011;33534;51.028;13.716;2024-02-26T00:14:32;134.82;;;91.00;;
47772;SDS011;33534;51.028;13.716;2024-02-26T00:16:58;136.43;;;89.60;;
47772;SDS011;33534;51.028;13.716;2024-02-26T00:19:23;136.30;;;88.55;;
47772;SDS011;33534;51.028;13.716;2024-02-26T00:21:49;129.85;;;87.45;;
47772;SDS011;33534;51.028;13.716;2024-02-26T00:24:15;126.53;;;86.00;;
47772;SDS011;33534;51.028;13.716;2024-02-26T00:26:40;131.82;;;86.40;;
47772;SDS011;33534;51.028;13.716;2024-02-26T00:29:06;129.18;;;86.13;;
47772;SDS011;33534;51.028;13.716;2024-02-26T00:31:32;128.70;;;84.15;;
47772;SDS011;33534;51.028;13.716;2024-02-26T00:33:57;127.85;;;83.97;;
47772;SDS011;33534;51.028;13.716;2024-02-26T00:36:23;128.15;;;84.53;;
47772;SDS011;33534;51.028;13.716;2024-02-26T00:38:48;127.63;;;83.97;;
47772;SDS011;33534;51.028;13.716;2024-02-26T00:41:19;123.70;;;81.63;;
47772;SDS011;33534;51.028;13.716;2024-02-26T00:43:45;125.90;;;84.75;;
47772;SDS011;33534;51.028;13.716;2024-02-26T00:46:11;126.78;;;81.75;;
47772;SDS011;33534;51.028;13.716;2024-02-26T00:48:36;123.93;;;81.38;;
47772;SDS011;33534;51.028;13.716;2024-02-26T00:51:02;125.75;;;82.50;;
47772;SDS011;33534;51.028;13.716;2024-02-26T00:53:30;118.60;;;79.03;;
47772;SDS011;33534;51.028;13.716;2024-02-26T00:55:56;116.10;;;76.45;;
47772;SDS011;33534;51.028;13.716;2024-02-26T00:58:24;120.38;;;80.30;;
47772;SDS011;33534;51.028;13.716;2024-02-26T01:00:50;119.85;;;78.88;;
47772;SDS011;33534;51.028;13.716;2024-02-26T01:03:15;115.18;;;77.95;;
47772;SDS011;33534;51.028;13.716;2024-02-26T01:05:42;115.60;;;76.78;;
47772;SDS011;33534;51.028;13.716;2024-02-26T01:08:07;114.90;;;75.88;;
47772;SDS011;33534;51.028;13.716;2024-02-26T01:10:33;117.97;;;78.70;;
47772;SDS011;33534;51.028;13.716;2024-02-26T01:12:59;114.57;;;76.03;;
47772;SDS011;33534;51.028;13.716;2024-02-26T01:15:25;113.18;;;74.53;;
47772;SDS011;33534;51.028;13.716;2024-02-26T01:17:50;114.18;;;74.20;;
47772;SDS011;33534;51.028;13.716;2024-02-26T01:20:16;109.03;;;74.32;;
47772;SDS011;33534;51.028;13.716;2024-02-26T01:22:42;115.03;;;75.88;;
47772;SDS011;33534;51.028;13.716;2024-02-26T01:25:09;111.72;;;74.32;;
47772;SDS011;33534;51.028;13.716;2024-02-26T01:27:35;109.10;;;70.63;;
47772;SDS011;33534;51.028;13.716;2024-02-26T01:30:05;103.03;;;71.03;;
47772;SDS011;33534;51.028;13.716;2024-02-26T01:32:31;103.10;;;68.07;;
47772;SDS011;33534;51.028;13.716;2024-02-26T01:34:57;102.15;;;69.63;;
47772;SDS011;33534;51.028;13.716;2024-02-26T01:37:23;107.63;;;71.47;;
47772;SDS011;33534;51.028;13.716;2024-02-26T01:39:48;107.88;;;70.03;;
47772;SDS011;33534;51.028;13.716;2024-02-26T01:42:14;106.20;;;68.43;;
47772;SDS011;33534;51.028;13.716;2024-02-26T01:44:40;104.53;;;68.88;;
47772;SDS011;33534;51.028;13.716;2024-02-26T01:47:05;102.88;;;68.60;;
47772;SDS011;33534;51.028;13.716;2024-02-26T01:49:35;98.43;;;65.72;;
47772;SDS011;33534;51.028;13.716;2024-02-26T01:52:01;98.32;;;63.88;;
47772;SDS011;33534;51.028;13.716;2024-02-26T01:54:29;95.45;;;64.93;;
47772;SDS011;33534;51.028;13.716;2024-02-26T01:56:55;98.00;;;66.60;;
47772;SDS011;33534;51.028;13.716;2024-02-26T01:59:21;95.47;;;64.75;;
47772;SDS011;33534;51.028;13.716;2024-02-26T02:01:48;99.30;;;64.55;;
47772;SDS011;33534;51.028;13.716;2024-02-26T02:04:19;95.63;;;61.38;;
47772;SDS011;33534;51.028;13.716;2024-02-26T02:06:45;98.05;;;64.38;;
47772;SDS011;33534;51.028;13.716;2024-02-26T02:09:11;96.55;;;64.22;;
47772;SDS011;33534;51.028;13.716;2024-02-26T02:11:37;93.53;;;61.88;;
47772;SDS011;33534;51.028;13.716;2024-02-26T02:14:02;92.72;;;61.17;;
47772;SDS011;33534;51.028;13.716;2024-02-26T02:16:28;97.22;;;61.08;;
47772;SDS011;33534;51.028;13.716;2024-02-26T02:18:54;92.57;;;59.22;;
47772;SDS011;33534;51.028;13.716;2024-02-26T02:21:19;90.18;;;58.42;;
47772;SDS011;33534;51.028;13.716;2024-02-26T02:23:45;94.70;;;60.35;;
47772;SDS011;33534;51.028;13.716;2024-02-26T02:26:14;86.65;;;58.38;;
47772;SDS011;33534;51.028;13.716;2024-02-26T02:28:40;86.70;;;57.58;;
47772;SDS011;33534;51.028;13.716;2024-02-26T02:31:06;88.72;;;57.83;;
47772;SDS011;33534;51.028;13.716;2024-02-26T02:33:33;86.95;;;57.10;;
47772;SDS011;33534;51.028;13.716;2024-02-26T02:35:59;82.95;;;56.40;;
47772;SDS011;33534;51.028;13.716;2024-02-26T02:38:25;81.30;;;55.47;;
47772;SDS011;33534;51.028;13.716;2024-02-26T02:40:52;88.13;;;56.00;;
47772;SDS011;33534;51.028;13.716;2024-02-26T02:43:18;86.90;;;56.17;;
47772;SDS011;33534;51.028;13.716;2024-02-26T02:45:43;85.90;;;55.00;;
47772;SDS011;33534;51.028;13.716;2024-02-26T02:48:10;83.03;;;55.50;;
47772;SDS011;33534;51.028;13.716;2024-02-26T02:50:36;82.32;;;54.20;;
47772;SDS011;33534;51.028;13.716;2024-02-26T02:53:02;85.18;;;55.55;;
47772;SDS011;33534;51.028;13.716;2024-02-26T02:55:27;80.93;;;54.63;;
47772;SDS011;33534;51.028;13.716;2024-02-26T02:57:53;76.63;;;52.00;;
47772;SDS011;33534;51.028;13.716;2024-02-26T03:00:19;79.78;;;53.92;;
47772;SDS011;33534;51.028;13.716;2024-02-26T03:02:44;81.55;;;53.15;;
47772;SDS011;33534;51.028;13.716;2024-02-26T03:05:13;75.47;;;50.10;;
47772;SDS011;33534;51.028;13.716;2024-02-26T03:07:38;80.63;;;52.55;;
47772;SDS011;33534;51.028;13.716;2024-02-26T03:10:04;76.55;;;51.08;;
47772;SDS011;33534;51.028;13.716;2024-02-26T03:12:30;73.20;;;49.92;;
47772;SDS011;33534;51.028;13.716;2024-02-26T03:14:56;78.18;;;52.08;;
47772;SDS011;33534;51.028;13.716;2024-02-26T03:17:21;73.85;;;50.83;;
47772;SDS011;33534;51.028;13.716;2024-02-26T03:19:49;75.03;;;50.35;;
47772;SDS011;33534;51.028;13.716;2024-02-26T03:22:18;76.18;;;51.00;;
47772;SDS011;33534;51.028;13.716;2024-02-26T03:24:44;72.82;;;48.53;;
47772;SDS011;33534;51.028;13.716;2024-02-26T03:27:09;74.07;;;49.58;;
47772;SDS011;33534;51.028;13.716;2024-02-26T03:29:35;69.63;;;47.42;;
47772;SDS011;33534;51.028;13.716;2024-02-26T03:32:02;72.20;;;48.88;;
47772;SDS011;33534;51.028;13.716;2024-02-26T03:34:28;75.35;;;47.97;;
47772;SDS011;33534;51.028;13.716;2024-02-26T03:36:55;71.00;;;46.70;;
47772;SDS011;33534;51.028;13.716;2024-02-26T03:39:21;70.25;;;47.85;;
47772;SDS011;33534;51.028;13.716;2024-02-26T03:41:47;68.47;;;46.35;;
47772;SDS011;33534;51.028;13.716;2024-02-26T03:44:13;64.75;;;43.53;;
47772;SDS011;33534;51.028;13.716;2024-02-26T03:46:39;65.55;;;44.53;;
47772;SDS011;33534;51.028;13.716;2024-02-26T03:49:04;65.95;;;44.55;;
47772;SDS011;33534;51.028;13.716;2024-02-26T03:51:30;67.47;;;45.83;;
47772;SDS011;33534;51.028;13.716;2024-02-26T03:53:57;66.40;;;44.70;;
47772;SDS011;33534;51.028;13.716;2024-02-26T03:56:23;66.57;;;44.25;;
47772;SDS011;33534;51.028;13.716;2024-02-26T03:58:50;63.33;;;43.08;;
47772;SDS011;33534;51.028;13.716;2024-02-26T04:01:16;65.28;;;43.33;;
47772;SDS011;33534;51.028;13.716;2024-02-26T04:03:41;66.88;;;44.40;;
47772;SDS011;33534;51.028;13.716;2024-02-26T04:06:10;65.18;;;42.30;;
47772;SDS011;33534;51.028;13.716;2024-02-26T04:08:37;67.45;;;43.00;;
47772;SDS011;33534;51.028;13.716;2024-02-26T04:11:03;64.13;;;41.72;;
47772;SDS011;33534;51.028;13.716;2024-02-26T04:13:32;65.45;;;42.67;;
47772;SDS011;33534;51.028;13.716;2024-02-26T04:15:58;60.40;;;40.70;;
47772;SDS011;33534;51.028;13.716;2024-02-26T04:18:26;62.85;;;41.65;;
47772;SDS011;33534;51.028;13.716;2024-02-26T04:20:52;58.08;;;39.38;;
47772;SDS011;33534;51.028;13.716;2024-02-26T04:23:18;58.50;;;39.90;;
47772;SDS011;33534;51.028;13.716;2024-02-26T04:25:44;60.33;;;39.95;;
47772;SDS011;33534;51.028;13.716;2024-02-26T04:28:09;58.78;;;39.83;;
47772;SDS011;33534;51.028;13.716;2024-02-26T04:30:35;59.65;;;40.20;;
47772;SDS011;33534;51.028;13.716;2024-02-26T04:33:01;56.85;;;37.10;;
47772;SDS011;33534;51.028;13.716;2024-02-26T04:35:27;58.30;;;38.80;;
47772;SDS011;33534;51.028;13.716;2024-02-26T04:37:52;57.70;;;38.35;;
47772;SDS011;33534;51.028;13.716;2024-02-26T04:40:18;55.97;;;38.58;;
47772;SDS011;33534;51.028;13.716;2024-02-26T04:42:44;54.35;;;36.97;;
47772;SDS011;33534;51.028;13.716;2024-02-26T04:45:09;53.88;;;36.75;;
47772;SDS011;33534;51.028;13.716;2024-02-26T04:47:35;54.85;;;37.50;;
47772;SDS011;33534;51.028;13.716;2024-02-26T04:50:01;54.75;;;36.75;;
47772;SDS011;33534;51.028;13.716;2024-02-26T04:52:26;51.70;;;36.05;;
47772;SDS011;33534;51.028;13.716;2024-02-26T04:54:52;56.55;;;36.90;;
47772;SDS011;33534;51.028;13.716;2024-02-26T04:57:18;49.83;;;34.65;;
47772;SDS011;33534;51.028;13.716;2024-02-26T04:59:43;50.05;;;34.60;;
47772;SDS011;33534;51.028;13.716;2024-02-26T05:02:10;52.90;;;34.25;;
47772;SDS011;33534;51.028;13.716;2024-02-26T05:04:37;52.13;;;36.25;;
47772;SDS011;33534;51.028;13.716;2024-02-26T05:07:02;49.25;;;33.38;;
47772;SDS011;33534;51.028;13.716;2024-02-26T05:09:28;54.05;;;35.17;;
47772;SDS011;33534;51.028;13.716;2024-02-26T05:11:54;48.63;;;33.55;;
47772;SDS011;33534;51.028;13.716;2024-02-26T05:14:20;51.75;;;34.35;;
47772;SDS011;33534;51.028;13.716;2024-02-26T05:16:46;47.58;;;32.65;;
47772;SDS011;33534;51.028;13.716;2024-02-26T05:19:12;51.05;;;32.47;;
47772;SDS011;33534;51.028;13.716;2024-02-26T05:21:38;50.63;;;33.53;;
47772;SDS011;33534;51.028;13.716;2024-02-26T05:24:05;46.83;;;31.08;;
47772;SDS011;33534;51.028;13.716;2024-02-26T05:26:31;46.38;;;30.95;;
47772;SDS011;33534;51.028;13.716;2024-02-26T05:28:56;47.08;;;31.35;;
47772;SDS011;33534;51.028;13.716;2024-02-26T05:31:25;49.25;;;31.30;;
47772;SDS011;33534;51.028;13.716;2024-02-26T05:33:51;46.45;;;31.23;;
47772;SDS011;33534;51.028;13.716;2024-02-26T05:36:20;44.25;;;29.35;;
47772;SDS011;33534;51.028;13.716;2024-02-26T05:38:47;48.22;;;31.55;;
47772;SDS011;33534;51.028;13.716;2024-02-26T05:41:17;44.50;;;30.10;;
47772;SDS011;33534;51.028;13.716;2024-02-26T05:43:51;44.10;;;29.85;;
47772;SDS011;33534;51.028;13.716;2024-02-26T05:46:19;41.22;;;28.42;;
47772;SDS011;33534;51.028;13.716;2024-02-26T05:48:49;47.33;;;29.63;;
47772;SDS011;33534;51.028;13.716;2024-02-26T05:51:16;41.73;;;27.77;;
47772;SDS011;33534;51.028;13.716;2024-02-26T05:53:41;46.45;;;28.48;;
47772;SDS011;33534;51.028;13.716;2024-02-26T05:56:07;42.00;;;27.88;;
47772;SDS011;33534;51.028;13.716;2024-02-26T05:58:33;39.97;;;22.83;;
47772;SDS011;33534;51.028;13.716;2024-02-26T06:00:59;13.32;;;9.48;;
47772;SDS011;33534;51.028;13.716;2024-02-26T06:03:25;13.15;;;8.70;;
47772;SDS011;33534;51.028;13.716;2024-02-26T06:05:51;11.75;;;8.52;;
47772;SDS011;33534;51.028;13.716;2024-02-26T06:08:17;9.52;;;7.68;;
47772;SDS011;33534;51.028;13.716;2024-02-26T06:10:42;11.40;;;7.85;;
47772;SDS011;33534;51.028;13.716;2024-02-26T06:13:08;30.20;;;17.48;;
47772;SDS011;33534;51.028;13.716;2024-02-26T06:15:33;33.55;;;21.08;;
47772;SDS011;33534;51.028;13.716;2024-02-26T06:17:59;29.73;;;19.38;;
47772;SDS011;33534;51.028;13.716;2024-02-26T06:20:25;33.15;;;18.90;;
47772;SDS011;33534;51.028;13.716;2024-02-26T06:22:50;35.35;;;19.98;;
47772;SDS011;33534;51.028;13.716;2024-02-26T06:25:16;32.92;;;18.33;;
47772;SDS011;33534;51.028;13.716;2024-02-26T06:27:42;30.77;;;18.73;;
47772;SDS011;33534;51.028;13.716;2024-02-26T06:30:08;32.55;;;18.98;;
47772;SDS011;33534;51.028;13.716;2024-02-26T06:32:36;36.05;;;19.40;;
47772;SDS011;33534;51.028;13.716;2024-02-26T06:35:02;31.20;;;17.80;;
47772;SDS011;33534;51.028;13.716;2024-02-26T06:37:32;32.28;;;17.63;;
47772;SDS011;33534;51.028;13.716;2024-02-26T06:39:58;27.95;;;18.13;;
47772;SDS011;33534;51.028;13.716;2024-02-26T06:42:24;26.98;;;17.77;;
47772;SDS011;33534;51.028;13.716;2024-02-26T06:44:50;33.30;;;17.58;;
47772;SDS011;33534;51.028;13.716;2024-02-26T06:47:15;28.10;;;16.63;;
47772;SDS011;33534;51.028;13.716;2024-02-26T06:49:41;28.10;;;17.35;;
47772;SDS011;33534;51.028;13.716;2024-02-26T06:52:07;32.30;;;17.92;;
47772;SDS011;33534;51.028;13.716;2024-02-26T06:54:32;27.55;;;15.88;;
47772;SDS011;33534;51.028;13.716;2024-02-26T06:56:58;30.80;;;16.15;;
47772;SDS011;33534;51.028;13.716;2024-02-26T06:59:24;27.60;;;16.85;;
47772;SDS011;33534;51.028;13.716;2024-02-26T07:01:50;26.70;;;15.75;;
47772;SDS011;33534;51.028;13.716;2024-02-26T07:04:15;29.27;;;17.80;;
47772;SDS011;33534;51.028;13.716;2024-02-26T07:06:41;31.88;;;17.45;;
47772;SDS011;33534;51.028;13.716;2024-02-26T07:09:08;32.08;;;17.20;;
47772;SDS011;33534;51.028;13.716;2024-02-26T07:11:33;26.17;;;15.40;;
47772;SDS011;33534;51.028;13.716;2024-02-26T07:13:59;29.08;;;17.05;;
47772;SDS011;33534;51.028;13.716;2024-02-26T07:16:26;23.30;;;15.15;;
47772;SDS011;33534;51.028;13.716;2024-02-26T07:18:52;29.38;;;15.55;;
47772;SDS011;33534;51.028;13.716;2024-02-26T07:21:17;24.38;;;15.32;;
47772;SDS011;33534;51.028;13.716;2024-02-26T07:23:43;27.38;;;15.43;;
47772;SDS011;33534;51.028;13.716;2024-02-26T07:26:09;23.77;;;14.95;;
47772;SDS011;33534;51.028;13.716;2024-02-26T07:28:36;23.65;;;14.57;;
47772;SDS011;33534;51.028;13.716;2024-02-26T07:31:02;23.02;;;14.57;;
47772;SDS011;33534;51.028;13.716;2024-02-26T07:33:28;26.67;;;14.80;;
47772;SDS011;33534;51.028;13.716;2024-02-26T07:35:54;23.52;;;13.98;;
47772;SDS011;33534;51.028;13.716;2024-02-26T07:38:19;24.17;;;14.07;;
47772;SDS011;33534;51.028;13.716;2024-02-26T07:40:45;20.67;;;14.45;;
47772;SDS011;33534;51.028;13.716;2024-02-26T07:43:10;24.85;;;14.32;;
47772;SDS011;33534;51.028;13.716;2024-02-26T07:45:36;20.60;;;14.45;;
47772;SDS011;33534;51.028;13.716;2024-02-26T07:48:02;23.42;;;14.15;;
47772;SDS011;33534;51.028;13.716;2024-02-26T07:50:27;21.00;;;14.10;;
47772;SDS011;33534;51.028;13.716;2024-02-26T07:52:53;23.63;;;14.10;;
47772;SDS011;33534;51.028;13.716;2024-02-26T07:55:19;22.15;;;12.98;;
47772;SDS011;33534;51.028;13.716;2024-02-26T07:57:45;21.10;;;12.68;;
47772;SDS011;33534;51.028;13.716;2024-02-26T08:00:10;20.27;;;13.15;;
47772;SDS011;33534;51.028;13.716;2024-02-26T08:02:36;20.27;;;13.57;;
47772;SDS011;33534;51.028;13.716;2024-02-26T08:05:02;22.45;;;13.90;;
47772;SDS011;33534;51.028;13.716;2024-02-26T08:07:28;19.40;;;12.32;;
47772;SDS011;33534;51.028;13.716;2024-02-26T08:09:54;18.63;;;12.45;;
47772;SDS011;33534;51.028;13.716;2024-02-26T08:12:19;20.05;;;12.80;;
47772;SDS011;33534;51.028;13.716;2024-02-26T08:14:45;18.02;;;12.88;;
47772;SDS011;33534;51.028;13.716;2024-02-26T08:17:11;19.08;;;12.80;;
47772;SDS011;33534;51.028;13.716;2024-02-26T08:19:36;17.20;;;11.70;;
47772;SDS011;33534;51.028;13.716;2024-02-26T08:22:02;20.98;;;12.70;;
47772;SDS011;33534;51.028;13.716;2024-02-26T08:24:28;18.50;;;12.23;;
47772;SDS011;33534;51.028;13.716;2024-02-26T08:26:54;18.73;;;12.27;;
47772;SDS011;33534;51.028;13.716;2024-02-26T08:29:19;20.02;;;11.98;;
47772;SDS011;33534;51.028;13.716;2024-02-26T08:31:45;19.35;;;11.40;;
47772;SDS011;33534;51.028;13.716;2024-02-26T08:34:11;18.45;;;11.52;;
47772;SDS011;33534;51.028;13.716;2024-02-26T08:36:36;15.98;;;10.82;;
47772;SDS011;33534;51.028;13.716;2024-02-26T08:39:02;19.13;;;11.25;;
47772;SDS011;33534;51.028;13.716;2024-02-26T08:41:28;13.32;;;8.48;;
47772;SDS011;33534;51.028;13.716;2024-02-26T08:43:54;10.73;;;7.45;;
47772;SDS011;33534;51.028;13.716;2024-02-26T08:46:19;10.35;;;7.65;;
47772;SDS011;33534;51.028;13.716;2024-02-26T08:48:45;10.65;;;7.25;;
47772;SDS011;33534;51.028;13.716;2024-02-26T08:51:11;13.95;;;8.50;;
47772;SDS011;33534;51.028;13.716;2024-02-26T08:53:38;11.63;;;7.75;;
47772;SDS011;33534;51.028;13.716;2024-02-26T08:56:04;12.50;;;8.02;;
47772;SDS011;33534;51.028;13.716;2024-02-26T08:58:30;10.32;;;7.82;;
47772;SDS011;33534;51.028;13.716;2024-02-26T09:00:56;12.80;;;7.90;;
47772;SDS011;33534;51.028;13.716;2024-02-26T09:03:22;10.75;;;7.20;;
47772;SDS011;33534;51.028;13.716;2024-02-26T09:05:48;10.55;;;7.30;;
47772;SDS011;33534;51.028;13.716;2024-02-26T09:08:13;8.50;;;6.22;;
47772;SDS011;33534;51.028;13.716;2024-02-26T09:10:39;11.15;;;5.90;;
47772;SDS011;33534;51.028;13.716;2024-02-26T09:13:05;13.60;;;6.78;;
47772;SDS011;33534;51.028;13.716;2024-02-26T09:15:31;9.20;;;5.95;;
47772;SDS011;33534;51.028;13.716;2024-02-26T09:17:57;11.65;;;6.05;;
47772;SDS011;33534;51.028;13.716;2024-02-26T09:20:22;17.48;;;6.35;;
47772;SDS011;33534;51.028;13.716;2024-02-26T09:22:48;72.05;;;16.65;;
47772;SDS011;33534;51.028;13.716;2024-02-26T09:25:15;58.33;;;16.02;;
47772;SDS011;33534;51.028;13.716;2024-02-26T09:27:42;55.83;;;13.63;;
47772;SDS011;33534;51.028;13.716;2024-02-26T09:30:11;39.03;;;11.45;;
47772;SDS011;33534;51.028;13.716;2024-02-26T09:32:38;38.58;;;10.90;;
47772;SDS011;33534;51.028;13.716;2024-02-26T09:35:04;29.08;;;9.65;;
47772;SDS011;33534;51.028;13.716;2024-02-26T09:37:33;30.35;;;10.00;;
47772;SDS011;33534;51.028;13.716;2024-02-26T09:39:59;32.97;;;10.60;;
47772;SDS011;33534;51.028;13.716;2024-02-26T09:42:25;25.67;;;9.00;;
47772;SDS011;33534;51.028;13.716;2024-02-26T09:44:51;27.88;;;9.10;;
47772;SDS011;33534;51.028;13.716;2024-02-26T09:49:49;21.85;;;8.77;;
47772;SDS011;33534;51.028;13.716;2024-02-26T09:52:18;26.88;;;9.13;;
47772;SDS011;33534;51.028;13.716;2024-02-26T09:54:48;32.83;;;9.82;;
47772;SDS011;33534;51.028;13.716;2024-02-26T09:57:14;23.92;;;8.48;;
47772;SDS011;33534;51.028;13.716;2024-02-26T09:59:41;25.80;;;8.63;;
47772;SDS011;33534;51.028;13.716;2024-02-26T10:02:12;22.73;;;7.88;;
47772;SDS011;33534;51.028;13.716;2024-02-26T10:04:41;21.00;;;7.90;;
47772;SDS011;33534;51.028;13.716;2024-02-26T10:07:11;23.05;;;8.32;;
47772;SDS011;33534;51.028;13.716;2024-02-26T10:09:38;22.33;;;7.93;;
47772;SDS011;33534;51.028;13.716;2024-02-26T10:12:04;18.83;;;8.02;;
47772;SDS011;33534;51.028;13.716;2024-02-26T10:14:32;19.67;;;8.23;;
47772;SDS011;33534;51.028;13.716;2024-02-26T10:16:58;17.15;;;7.57;;
47772;SDS011;33534;51.028;13.716;2024-02-26T10:19:29;18.52;;;7.40;;
47772;SDS011;33534;51.028;13.716;2024-02-26T10:21:59;16.80;;;7.53;;
47772;SDS011;33534;51.028;13.716;2024-02-26T10:24:29;19.40;;;7.65;;
47772;SDS011;33534;51.028;13.716;2024-02-26T10:26:56;19.08;;;8.25;;
47772;SDS011;33534;51.028;13.716;2024-02-26T10:29:23;21.70;;;7.47;;
47772;SDS011;33534;51.028;13.716;2024-02-26T10:31:53;16.45;;;7.25;;
47772;SDS011;33534;51.028;13.716;2024-02-26T10:34:19;15.52;;;6.93;;
47772;SDS011;33534;51.028;13.716;2024-02-26T10:36:46;18.15;;;7.38;;
47772;SDS011;33534;51.028;13.716;2024-02-26T10:39:12;15.52;;;7.57;;
47772;SDS011;33534;51.028;13.716;2024-02-26T10:41:38;13.75;;;6.57;;
47772;SDS011;33534;51.028;13.716;2024-02-26T10:44:05;20.05;;;7.53;;
47772;SDS011;33534;51.028;13.716;2024-02-26T10:46:33;13.32;;;6.18;;
47772;SDS011;33534;51.028;13.716;2024-02-26T10:49:00;20.50;;;7.18;;
47772;SDS011;33534;51.028;13.716;2024-02-26T10:51:27;13.60;;;7.13;;
47772;SDS011;33534;51.028;13.716;2024-02-26T10:53:56;14.82;;;6.70;;
47772;SDS011;33534;51.028;13.716;2024-02-26T10:56:27;16.33;;;7.35;;
47772;SDS011;33534;51.028;13.716;2024-02-26T10:58:54;17.00;;;6.70;;
47772;SDS011;33534;51.028;13.716;2024-02-26T11:01:21;15.25;;;6.50;;
47772;SDS011;33534;51.028;13.716;2024-02-26T11:03:50;14.68;;;7.30;;
47772;SDS011;33534;51.028;13.716;2024-02-26T11:06:18;12.10;;;5.50;;
47772;SDS011;33534;51.028;13.716;2024-02-26T11:08:48;14.52;;;6.40;;
47772;SDS011;33534;51.028;13.716;2024-02-26T11:11:15;15.95;;;6.30;;
47772;SDS011;33534;51.028;13.716;2024-02-26T11:13:46;13.45;;;7.30;;
47772;SDS011;33534;51.028;13.716;2024-02-26T11:16:18;13.15;;;6.70;;
47772;SDS011;33534;51.028;13.716;2024-02-26T11:18:46;12.95;;;6.50;;
47772;SDS011;33534;51.028;13.716;2024-02-26T11:21:15;14.18;;;6.40;;
47772;SDS011;33534;51.028;13.716;2024-02-26T11:23:52;15.30;;;6.35;;
47772;SDS011;33534;51.028;13.716;2024-02-26T11:26:18;9.93;;;5.85;;
47772;SDS011;33534;51.028;13.716;2024-02-26T11:28:46;10.50;;;6.00;;
47772;SDS011;33534;51.028;13.716;2024-02-26T11:31:14;11.65;;;6.35;;
47772;SDS011;33534;51.028;13.716;2024-02-26T11:33:40;12.32;;;6.13;;
47772;SDS011;33534;51.028;13.716;2024-02-26T11:36:09;14.80;;;5.30;;
47772;SDS011;33534;51.028;13.716;2024-02-26T11:38:36;14.02;;;6.47;;
47772;SDS011;33534;51.028;13.716;2024-02-26T11:41:02;13.05;;;6.20;;
47772;SDS011;33534;51.028;13.716;2024-02-26T11:43:51;10.88;;;5.38;;
47772;SDS011;33534;51.028;13.716;2024-02-26T11:46:32;13.35;;;6.15;;
47772;SDS011;33534;51.028;13.716;2024-02-26T11:48:59;13.05;;;6.40;;
47772;SDS011;33534;51.028;13.716;2024-02-26T11:51:32;13.07;;;6.65;;
47772;SDS011;33534;51.028;13.716;2024-02-26T11:53:59;11.18;;;5.53;;
47772;SDS011;33534;51.028;13.716;2024-02-26T11:56:25;12.20;;;6.55;;
47772;SDS011;33534;51.028;13.716;2024-02-26T11:59:04;14.75;;;6.68;;
47772;SDS011;33534;51.028;13.716;2024-02-26T12:01:44;15.73;;;6.25;;
47772;SDS011;33534;51.028;13.716;2024-02-26T12:04:21;13.23;;;6.00;;
47772;SDS011;33534;51.028;13.716;2024-02-26T12:06:52;13.27;;;6.07;;
47772;SDS011;33534;51.028;13.716;2024-02-26T12:09:53;14.75;;;6.57;;
47772;SDS011;33534;51.028;13.716;2024-02-26T12:12:13;10.70;;;5.45;;
47772;SDS011;33534;51.028;13.716;2024-02-26T12:17:25;11.38;;;5.63;;
47772;SDS011;33534;51.028;13.716;2024-02-26T12:19:51;16.63;;;6.38;;
47772;SDS011;33534;51.028;13.716;2024-02-26T12:22:18;15.85;;;6.78;;
47772;SDS011;33534;51.028;13.716;2024-02-26T12:24:44;15.75;;;6.47;;
47772;SDS011;33534;51.028;13.716;2024-02-26T12:27:10;14.98;;;6.75;;
47772;SDS011;33534;51.028;13.716;2024-02-26T12:29:36;13.68;;;6.00;;
47772;SDS011;33534;51.028;13.716;2024-02-26T12:32:03;17.83;;;6.40;;
47772;SDS011;33534;51.028;13.716;2024-02-26T12:34:30;13.73;;;5.70;;
47772;SDS011;33534;51.028;13.716;2024-02-26T12:36:56;12.02;;;5.63;;
47772;SDS011;33534;51.028;13.716;2024-02-26T12:39:22;12.63;;;6.05;;
47772;SDS011;33534;51.028;13.716;2024-02-26T12:41:47;12.07;;;5.68;;
47772;SDS011;33534;51.028;13.716;2024-02-26T12:44:17;16.08;;;6.30;;
47772;SDS011;33534;51.028;13.716;2024-02-26T12:46:43;19.92;;;6.45;;
47772;SDS011;33534;51.028;13.716;2024-02-26T12:49:09;15.27;;;5.75;;
47772;SDS011;33534;51.028;13.716;2024-02-26T12:51:40;13.00;;;5.57;;
47772;SDS011;33534;51.028;13.716;2024-02-26T12:54:06;11.23;;;5.28;;
47772;SDS011;33534;51.028;13.716;2024-02-26T12:56:33;15.10;;;5.32;;
47772;SDS011;33534;51.028;13.716;2024-02-26T12:58:59;16.88;;;5.85;;
47772;SDS011;33534;51.028;13.716;2024-02-26T13:01:25;17.30;;;5.68;;
47772;SDS011;33534;51.028;13.716;2024-02-26T13:03:51;14.05;;;5.78;;
47772;SDS011;33534;51.028;13.716;2024-02-26T13:06:18;12.10;;;6.15;;
47772;SDS011;33534;51.028;13.716;2024-02-26T13:08:47;11.07;;;5.20;;
47772;SDS011;33534;51.028;13.716;2024-02-26T13:11:13;12.40;;;5.20;;
47772;SDS011;33534;51.028;13.716;2024-02-26T13:13:39;14.50;;;5.28;;
47772;SDS011;33534;51.028;13.716;2024-02-26T13:16:06;14.50;;;5.28;;
47772;SDS011;33534;51.028;13.716;2024-02-26T13:18:34;10.95;;;5.78;;
47772;SDS011;33534;51.028;13.716;2024-02-26T13:21:07;17.63;;;5.43;;
47772;SDS011;33534;51.028;13.716;2024-02-26T13:23:33;10.88;;;4.93;;
47772;SDS011;33534;51.028;13.716;2024-02-26T13:25:59;10.18;;;5.00;;
47772;SDS011;33534;51.028;13.716;2024-02-26T13:28:24;12.20;;;5.35;;
47772;SDS011;33534;51.028;13.716;2024-02-26T13:30:55;12.63;;;5.30;;
47772;SDS011;33534;51.028;13.716;2024-02-26T13:33:22;16.10;;;5.50;;
47772;SDS011;33534;51.028;13.716;2024-02-26T13:35:48;12.20;;;5.20;;
47772;SDS011;33534;51.028;13.716;2024-02-26T13:38:14;11.00;;;5.40;;
47772;SDS011;33534;51.028;13.716;2024-02-26T13:40:40;12.60;;;5.13;;
47772;SDS011;33534;51.028;13.716;2024-02-26T13:43:05;10.80;;;4.95;;
47772;SDS011;33534;51.028;13.716;2024-02-26T13:45:34;12.70;;;5.47;;
47772;SDS011;33534;51.028;13.716;2024-02-26T13:48:01;14.63;;;5.32;;
47772;SDS011;33534;51.028;13.716;2024-02-26T13:50:28;10.05;;;4.88;;
47772;SDS011;33534;51.028;13.716;2024-02-26T13:52:54;11.05;;;4.70;;
47772;SDS011;33534;51.028;13.716;2024-02-26T13:55:21;11.48;;;5.05;;
47772;SDS011;33534;51.028;13.716;2024-02-26T13:57:49;13.30;;;5.07;;
47772;SDS011;33534;51.028;13.716;2024-02-26T14:00:17;9.98;;;5.18;;
47772;SDS011;33534;51.028;13.716;2024-02-26T14:02:42;14.00;;;5.35;;
47772;SDS011;33534;51.028;13.716;2024-02-26T14:05:08;11.50;;;5.05;;
47772;SDS011;33534;51.028;13.716;2024-02-26T14:07:34;11.93;;;4.93;;
47772;SDS011;33534;51.028;13.716;2024-02-26T14:09:59;11.57;;;5.28;;
47772;SDS011;33534;51.028;13.716;2024-02-26T14:12:25;15.20;;;5.57;;
47772;SDS011;33534;51.028;13.716;2024-02-26T14:14:51;15.52;;;5.28;;